createdAt,value
2022-09-06T00:00:18.054Z,11.54
2022-09-06T00:02:46.227Z,11.49
2022-09-06T00:05:14.654Z,11.51
2022-09-06T00:07:42.369Z,11.54
2022-09-06T00:10:11.089Z,11.54
2022-09-06T00:12:38.864Z,11.47
2022-09-06T00:15:07.354Z,11.38
2022-09-06T00:17:35.032Z,11.34
2022-09-06T00:20:04.775Z,11.37
2022-09-06T00:22:32.289Z,11.40
2022-09-06T00:24:59.855Z,11.40
2022-09-06T00:27:28.522Z,11.39
2022-09-06T00:29:56.001Z,11.42
2022-09-06T00:32:23.785Z,11.41
2022-09-06T00:34:51.683Z,11.41
2022-09-06T00:37:19.273Z,11.42
2022-09-06T00:39:47.265Z,11.38
2022-09-06T00:42:15.084Z,11.38
2022-09-06T00:44:42.733Z,11.43
2022-09-06T00:47:10.450Z,11.46
2022-09-06T00:49:44.300Z,11.42
2022-09-06T00:52:15.355Z,11.33
2022-09-06T00:54:43.821Z,11.37
2022-09-06T00:57:12.138Z,11.36
2022-09-06T00:59:41.586Z,11.29
2022-09-06T01:02:10.100Z,11.30
2022-09-06T01:04:41.667Z,11.28
2022-09-06T01:07:34.105Z,11.24
2022-09-06T01:10:17.938Z,11.26
2022-09-06T01:13:08.819Z,11.22
2022-09-06T01:16:00.583Z,11.23
2022-09-06T01:18:34.119Z,11.26
2022-09-06T01:21:10.914Z,11.25
2022-09-06T01:24:04.464Z,11.27
2022-09-06T01:27:04.122Z,11.22
2022-09-06T01:30:12.795Z,11.21
2022-09-06T01:32:49.121Z,11.16
2022-09-06T01:35:22.482Z,11.15
2022-09-06T01:37:50.373Z,11.12
2022-09-06T01:40:18.173Z,11.14
2022-09-06T01:42:47.459Z,11.10
2022-09-06T01:45:19.007Z,11.11
2022-09-06T01:48:01.581Z,11.08
2022-09-06T01:50:53.778Z,11.07
2022-09-06T01:53:46.205Z,10.99
2022-09-06T01:56:45.751Z,11.04
2022-09-06T01:59:19.407Z,11.03
2022-09-06T02:02:11.632Z,10.95
2022-09-06T02:04:53.524Z,10.96
2022-09-06T02:07:26.218Z,10.90
2022-09-06T02:10:17.682Z,10.80
2022-09-06T02:12:48.399Z,10.73
2022-09-06T02:15:23.663Z,10.75
2022-09-06T02:18:01.430Z,10.80
2022-09-06T02:20:35.401Z,10.79
2022-09-06T02:23:06.375Z,10.83
2022-09-06T02:25:39.521Z,10.85
2022-09-06T02:28:09.168Z,10.78
2022-09-06T02:30:42.160Z,10.73
2022-09-06T02:33:15.221Z,10.79
2022-09-06T02:35:50.217Z,10.82
2022-09-06T02:38:21.036Z,10.80
2022-09-06T02:40:50.155Z,10.75
2022-09-06T02:43:17.580Z,10.82
2022-09-06T02:45:45.243Z,10.83
2022-09-06T02:48:13.046Z,10.78
2022-09-06T02:50:40.747Z,10.80
2022-09-06T02:53:11.466Z,10.79
2022-09-06T02:55:39.715Z,10.81
2022-09-06T02:58:11.414Z,10.74
2022-09-06T03:00:39.408Z,10.71
2022-09-06T03:03:07.478Z,10.73
2022-09-06T03:05:35.091Z,10.72
2022-09-06T03:08:03.378Z,10.80
2022-09-06T03:10:31.179Z,10.75
2022-09-06T03:12:59.201Z,10.69
2022-09-06T03:15:27.003Z,10.71
2022-09-06T03:17:58.757Z,10.74
2022-09-06T03:20:26.641Z,10.74
2022-09-06T03:22:54.339Z,10.70
2022-09-06T03:25:22.015Z,10.70
2022-09-06T03:27:49.867Z,10.64
2022-09-06T03:30:17.477Z,10.63
2022-09-06T03:32:45.290Z,10.68
2022-09-06T03:35:13.045Z,10.70
2022-09-06T03:37:41.109Z,10.64
2022-09-06T03:40:09.633Z,10.64
2022-09-06T03:42:37.526Z,10.68
2022-09-06T03:45:05.887Z,10.60
2022-09-06T03:47:33.699Z,10.62
2022-09-06T03:50:01.515Z,10.67
2022-09-06T03:52:29.433Z,10.68
2022-09-06T03:54:57.455Z,10.70
2022-09-06T03:57:25.034Z,10.66
2022-09-06T03:59:52.790Z,10.59
2022-09-06T04:02:21.000Z,10.55
2022-09-06T04:04:48.614Z,10.50
2022-09-06T04:07:16.193Z,10.52
2022-09-06T04:09:43.754Z,10.53
2022-09-06T04:12:11.484Z,10.56
2022-09-06T04:14:39.183Z,10.46
2022-09-06T04:17:07.036Z,10.40
2022-09-06T04:19:34.832Z,10.42
2022-09-06T04:22:02.497Z,10.34
2022-09-06T04:24:30.194Z,10.31
2022-09-06T04:27:00.052Z,10.34
2022-09-06T04:29:27.820Z,10.39
2022-09-06T04:31:55.600Z,10.46
2022-09-06T04:34:23.211Z,10.57
2022-09-06T04:36:50.743Z,10.63
2022-09-06T04:39:18.461Z,10.59
2022-09-06T04:41:46.037Z,10.65
2022-09-06T04:44:13.590Z,10.64
2022-09-06T04:46:42.505Z,10.68
2022-09-06T04:49:10.371Z,10.67
2022-09-06T04:51:39.608Z,10.78
2022-09-06T04:54:07.347Z,10.62
2022-09-06T04:56:34.963Z,10.78
2022-09-06T04:59:03.105Z,10.77
2022-09-06T05:01:30.763Z,10.83
2022-09-06T05:03:58.350Z,10.86
2022-09-06T05:06:26.196Z,10.71
2022-09-06T05:08:53.748Z,10.65
2022-09-06T05:11:21.490Z,10.71
2022-09-06T05:13:50.372Z,10.81
2022-09-06T05:16:18.327Z,10.89
2022-09-06T05:18:46.232Z,10.90
2022-09-06T05:21:14.324Z,11.04
2022-09-06T05:23:42.222Z,11.36
2022-09-06T05:26:09.837Z,11.44
2022-09-06T05:28:37.476Z,11.66
2022-09-06T05:31:12.307Z,11.94
2022-09-06T05:33:40.224Z,11.75
2022-09-06T05:36:08.262Z,11.89
2022-09-06T05:38:35.777Z,12.17
2022-09-06T05:41:03.297Z,12.40
2022-09-06T05:43:31.082Z,12.60
2022-09-06T05:45:59.415Z,12.75
2022-09-06T05:48:27.348Z,12.84
2022-09-06T05:51:12.874Z,12.93
2022-09-06T05:53:43.344Z,13.13
2022-09-06T05:56:12.755Z,13.32
2022-09-06T05:58:40.920Z,13.51
2022-09-06T06:01:14.409Z,13.60
2022-09-06T06:03:43.338Z,13.73
2022-09-06T06:06:11.212Z,13.93
2022-09-06T06:08:39.880Z,14.08
2022-09-06T06:11:07.596Z,14.17
2022-09-06T06:13:39.508Z,14.30
2022-09-06T06:16:08.531Z,14.39
2022-09-06T06:18:36.782Z,14.55
2022-09-06T06:21:13.486Z,14.74
2022-09-06T06:23:42.621Z,14.86
2022-09-06T06:26:11.876Z,15.00
2022-09-06T06:28:40.401Z,15.08
2022-09-06T06:31:10.122Z,15.21
2022-09-06T06:33:38.858Z,15.32
2022-09-06T06:36:12.305Z,15.46
2022-09-06T06:38:42.201Z,15.64
2022-09-06T06:41:12.478Z,15.81
2022-09-06T06:43:40.573Z,16.17
2022-09-06T06:46:12.275Z,16.48
2022-09-06T06:48:43.434Z,16.76
2022-09-06T06:51:13.854Z,17.62
2022-09-06T06:53:41.722Z,18.68
2022-09-06T06:56:31.224Z,19.54
2022-09-06T06:59:01.355Z,19.82
2022-09-06T07:01:31.565Z,19.20
2022-09-06T07:03:59.696Z,19.80
2022-09-06T07:09:20.114Z,20.51
2022-09-06T07:11:49.069Z,20.47
2022-09-06T07:14:19.700Z,20.04
2022-09-06T07:16:47.642Z,19.81
2022-09-06T07:22:05.327Z,20.99
2022-09-06T07:24:33.484Z,21.34
2022-09-06T07:29:48.652Z,20.59
2022-09-06T07:32:16.494Z,19.90
2022-09-06T07:34:44.171Z,19.86
2022-09-06T07:37:11.806Z,20.50
2022-09-06T07:39:40.025Z,20.85
2022-09-06T07:42:08.238Z,20.53
2022-09-06T07:44:36.008Z,21.12
2022-09-06T07:55:29.838Z,20.79
2022-09-06T07:57:57.439Z,21.25
2022-09-06T08:00:25.388Z,21.22
2022-09-06T08:02:53.098Z,20.30
2022-09-06T08:10:56.230Z,20.14
2022-09-06T08:13:24.036Z,20.64
2022-09-06T08:16:06.271Z,20.89
2022-09-06T08:18:35.266Z,20.79
2022-09-06T08:21:12.164Z,20.82
2022-09-06T08:23:49.094Z,20.58
2022-09-06T08:26:18.052Z,20.16
2022-09-06T08:28:45.679Z,19.63
2022-09-06T08:31:17.756Z,19.32
2022-09-06T08:33:47.676Z,19.03
2022-09-06T08:36:15.794Z,18.92
2022-09-06T08:38:43.404Z,18.41
2022-09-06T08:41:16.851Z,18.03
2022-09-06T08:47:04.438Z,18.17
2022-09-06T08:49:56.866Z,18.01
2022-09-06T08:52:29.202Z,17.85
2022-09-06T08:55:21.309Z,17.94
2022-09-06T08:58:01.404Z,17.70
2022-09-06T09:00:30.329Z,17.46
2022-09-06T09:03:09.071Z,17.54
2022-09-06T09:05:41.169Z,17.47
2022-09-06T09:08:16.429Z,17.24
2022-09-06T09:11:03.976Z,17.23
2022-09-06T09:13:49.225Z,17.16
2022-09-06T09:16:17.756Z,17.08
2022-09-06T09:18:52.502Z,17.10
2022-09-06T09:21:26.820Z,17.02
2022-09-06T09:24:02.048Z,17.01
2022-09-06T09:26:36.992Z,17.08
2022-09-06T09:29:10.757Z,17.08
2022-09-06T09:31:51.344Z,17.11
2022-09-06T09:34:35.263Z,17.13
2022-09-06T09:40:07.339Z,17.00
2022-09-06T09:42:37.519Z,17.12
2022-09-06T09:45:20.186Z,17.17
2022-09-06T09:47:47.748Z,17.18
2022-09-06T09:50:34.737Z,17.16
2022-09-06T09:53:15.080Z,17.44
2022-09-06T09:55:44.268Z,17.54
2022-09-06T09:58:33.528Z,17.57
2022-09-06T10:01:29.316Z,17.56
2022-09-06T10:07:16.341Z,17.43
2022-09-06T10:09:47.803Z,17.29
2022-09-06T10:12:33.014Z,17.30
2022-09-06T10:15:03.630Z,17.10
2022-09-06T10:17:38.602Z,16.94
2022-09-06T10:20:12.894Z,16.91
2022-09-06T10:22:55.696Z,16.86
2022-09-06T10:26:01.856Z,16.89
2022-09-06T10:28:29.693Z,16.79
2022-09-06T10:31:29.189Z,16.79
2022-09-06T10:34:09.608Z,16.86
2022-09-06T10:36:58.006Z,16.82
2022-09-06T10:39:46.423Z,16.85
2022-09-06T10:42:37.784Z,16.97
2022-09-06T10:45:14.403Z,16.93
2022-09-06T10:48:14.472Z,16.93
2022-09-06T10:51:00.757Z,16.89
2022-09-06T10:54:02.765Z,17.08
2022-09-06T10:56:41.505Z,17.11
2022-09-06T11:02:23.924Z,17.44
2022-09-06T11:10:40.413Z,16.57
2022-09-06T11:13:18.634Z,16.68
2022-09-06T11:15:48.842Z,16.87
2022-09-06T11:18:25.203Z,17.03
2022-09-06T11:21:19.335Z,16.50
2022-09-06T11:24:06.531Z,16.62
2022-09-06T11:26:44.522Z,16.86
2022-09-06T11:29:22.413Z,17.00
2022-09-06T11:32:18.114Z,17.01
2022-09-06T11:34:58.801Z,16.88
2022-09-06T11:37:32.979Z,16.94
2022-09-06T11:42:50.825Z,16.79
2022-09-06T11:45:39.392Z,16.72
2022-09-06T11:48:34.136Z,16.79
2022-09-06T11:51:11.293Z,16.76
2022-09-06T11:53:51.051Z,16.42
2022-09-06T11:56:30.341Z,16.44
2022-09-06T11:59:03.873Z,16.49
2022-09-06T12:01:31.386Z,16.67
2022-09-06T12:04:07.217Z,16.78
2022-09-06T12:06:38.995Z,17.02
2022-09-06T12:09:36.436Z,17.25
2022-09-06T12:12:04.605Z,17.43
2022-09-06T12:14:40.990Z,17.18
2022-09-06T12:17:09.122Z,17.26
2022-09-06T12:19:45.744Z,17.38
2022-09-06T12:22:32.843Z,17.40
2022-09-06T12:25:22.205Z,17.29
2022-09-06T12:27:57.001Z,17.27
2022-09-06T12:30:45.782Z,17.33
2022-09-06T12:33:36.386Z,17.37
2022-09-06T12:36:33.439Z,17.31
2022-09-06T12:39:09.885Z,17.28
2022-09-06T12:41:43.548Z,17.31
2022-09-06T12:44:14.550Z,17.13
2022-09-06T12:46:50.885Z,17.31
2022-09-06T12:49:21.345Z,17.31
2022-09-06T12:51:49.991Z,17.16
2022-09-06T12:54:25.227Z,17.26
2022-09-06T12:56:53.918Z,17.35
2022-09-06T12:59:24.622Z,17.47
2022-09-06T13:02:00.841Z,17.55
2022-09-06T13:05:03.429Z,17.55
2022-09-06T13:07:32.893Z,17.48
2022-09-06T13:10:00.743Z,17.51
2022-09-06T13:12:35.263Z,17.30
2022-09-06T13:15:17.439Z,17.43
2022-09-06T13:17:45.373Z,17.60
2022-09-06T13:20:26.120Z,17.78
2022-09-06T13:23:05.078Z,17.85
2022-09-06T13:25:33.544Z,17.99
2022-09-06T13:28:02.407Z,17.86
2022-09-06T13:30:34.772Z,18.05
2022-09-06T13:33:04.741Z,18.06
2022-09-06T13:35:36.077Z,17.86
2022-09-06T13:38:33.022Z,17.58
2022-09-06T13:41:16.903Z,17.63
2022-09-06T13:43:47.744Z,17.70
2022-09-06T13:46:16.232Z,17.61
2022-09-06T13:48:44.992Z,17.63
2022-09-06T13:51:13.019Z,17.49
2022-09-06T13:53:40.508Z,17.52
2022-09-06T13:56:08.877Z,17.49
2022-09-06T13:58:37.100Z,17.54
2022-09-06T14:01:10.112Z,17.60
2022-09-06T14:03:40.944Z,17.64
2022-09-06T14:06:10.189Z,17.63
2022-09-06T14:09:03.413Z,17.54
2022-09-06T14:11:27.002Z,17.43
2022-09-06T14:13:55.127Z,17.40
2022-09-06T14:16:22.822Z,17.30
2022-09-06T14:18:52.024Z,17.30
2022-09-06T14:21:19.918Z,17.27
2022-09-06T14:23:51.479Z,17.23
2022-09-06T14:26:23.203Z,17.20
2022-09-06T14:28:51.154Z,17.05
2022-09-06T14:31:21.820Z,17.02
2022-09-06T14:33:50.772Z,16.97
2022-09-06T14:36:21.042Z,16.92
2022-09-06T14:38:49.997Z,16.82
2022-09-06T14:41:18.958Z,16.76
2022-09-06T14:43:50.378Z,16.69
2022-09-06T14:46:19.362Z,16.65
2022-09-06T14:48:47.014Z,16.66
2022-09-06T14:51:20.807Z,16.69
2022-09-06T14:53:50.904Z,16.65
2022-09-06T14:56:19.410Z,16.72
2022-09-06T14:58:47.682Z,16.66
2022-09-06T15:01:25.706Z,16.75
2022-09-06T15:03:59.368Z,16.81
2022-09-06T15:06:27.757Z,16.84
2022-09-06T15:08:59.299Z,16.90
2022-09-06T15:11:34.703Z,16.93
2022-09-06T15:14:04.381Z,16.93
2022-09-06T15:16:32.972Z,16.93
2022-09-06T15:19:02.834Z,16.91
2022-09-06T15:21:31.726Z,16.87
2022-09-06T15:24:00.421Z,16.81
2022-09-06T15:26:28.392Z,16.71
2022-09-06T15:28:56.125Z,16.58
2022-09-06T15:31:24.000Z,16.60
2022-09-06T15:33:52.938Z,16.59
2022-09-06T15:36:21.947Z,16.63
2022-09-06T15:38:50.869Z,16.67
2022-09-06T15:41:27.272Z,16.65
2022-09-06T15:43:57.876Z,16.65
2022-09-06T15:46:34.636Z,16.64
2022-09-06T15:49:06.466Z,16.53
2022-09-06T15:51:35.686Z,16.57
2022-09-06T15:54:04.324Z,16.56
2022-09-06T15:56:32.503Z,16.56
2022-09-06T15:59:00.074Z,16.50
2022-09-06T16:01:28.194Z,16.50
2022-09-06T16:04:03.851Z,16.48
2022-09-06T16:06:38.235Z,16.49
2022-09-06T16:09:08.852Z,16.46
2022-09-06T16:11:37.582Z,16.43
2022-09-06T16:14:07.216Z,16.42
2022-09-06T16:16:35.940Z,16.43
2022-09-06T16:19:03.656Z,16.46
2022-09-06T16:21:33.325Z,16.45
2022-09-06T16:24:06.955Z,16.48
2022-09-06T16:26:40.960Z,16.41
2022-09-06T16:29:10.240Z,16.35
2022-09-06T16:31:40.524Z,16.30
2022-09-06T16:34:09.865Z,16.23
2022-09-06T16:36:37.691Z,16.24
2022-09-06T16:39:06.404Z,16.21
2022-09-06T16:41:42.959Z,16.16
2022-09-06T16:44:16.941Z,16.16
2022-09-06T16:46:46.989Z,16.20
2022-09-06T16:49:17.175Z,16.16
2022-09-06T16:51:46.295Z,16.13
2022-09-06T16:54:15.468Z,16.11
2022-09-06T16:56:43.373Z,16.08
2022-09-06T16:59:12.012Z,16.08
2022-09-06T17:01:44.629Z,16.04
2022-09-06T17:04:15.624Z,16.00
2022-09-06T17:06:46.941Z,16.01
2022-09-06T17:09:17.791Z,15.95
2022-09-06T17:11:46.478Z,15.94
2022-09-06T17:14:14.222Z,15.89
2022-09-06T17:17:00.568Z,15.95
2022-09-06T17:19:29.741Z,15.89
2022-09-06T17:21:58.175Z,15.83
2022-09-06T17:24:27.010Z,15.82
2022-09-06T17:26:55.006Z,15.82
2022-09-06T17:29:24.450Z,15.71
2022-09-06T17:31:52.553Z,15.69
2022-09-06T17:34:20.457Z,15.59
2022-09-06T17:36:48.014Z,15.63
2022-09-06T17:39:18.336Z,15.64
2022-09-06T17:41:52.316Z,15.66
2022-09-06T17:44:23.470Z,15.64
2022-09-06T17:47:11.335Z,15.56
2022-09-06T17:49:39.520Z,15.59
2022-09-06T17:52:07.448Z,15.50
2022-09-06T17:54:35.207Z,15.52
2022-09-06T17:57:02.806Z,15.53
2022-09-06T17:59:35.090Z,15.50
2022-09-06T18:02:04.905Z,15.57
2022-09-06T18:04:33.222Z,15.54
2022-09-06T18:07:01.160Z,15.55
2022-09-06T18:09:29.056Z,15.53
2022-09-06T18:11:57.103Z,15.50
2022-09-06T18:14:24.932Z,15.51
2022-09-06T18:16:52.781Z,15.53
2022-09-06T18:19:22.247Z,15.55
2022-09-06T18:21:50.298Z,15.45
2022-09-06T18:24:18.471Z,15.47
2022-09-06T18:26:46.464Z,15.49
2022-09-06T18:29:16.834Z,15.53
2022-09-06T18:31:45.000Z,15.53
2022-09-06T18:34:12.820Z,15.55
2022-09-06T18:36:40.618Z,15.60
2022-09-06T18:39:08.727Z,15.65
2022-09-06T18:41:55.065Z,15.67
2022-09-06T18:44:23.152Z,15.66
2022-09-06T18:46:55.751Z,15.68
2022-09-06T18:49:24.076Z,15.59
2022-09-06T18:51:52.003Z,15.59
2022-09-06T18:54:20.611Z,15.64
2022-09-06T18:56:50.083Z,15.68
2022-09-06T18:59:18.378Z,15.69
2022-09-06T19:01:46.622Z,15.64
2022-09-06T19:04:14.720Z,15.67
2022-09-06T19:06:43.772Z,15.64
2022-09-06T19:09:14.694Z,15.59
2022-09-06T19:11:45.561Z,15.57
2022-09-06T19:14:15.189Z,15.54
2022-09-06T19:16:43.054Z,15.51
2022-09-06T19:19:11.960Z,15.55
2022-09-06T19:21:42.320Z,15.59
2022-09-06T19:24:15.648Z,15.59
2022-09-06T19:26:44.355Z,15.58
2022-09-06T19:29:15.863Z,15.53
2022-09-06T19:31:44.758Z,15.55
2022-09-06T19:34:15.594Z,15.56
2022-09-06T19:36:44.702Z,15.55
2022-09-06T19:39:15.158Z,15.54
2022-09-06T19:41:45.180Z,15.54
2022-09-06T19:44:17.013Z,15.54
2022-09-06T19:46:46.991Z,15.56
2022-09-06T19:49:19.532Z,15.54
2022-09-06T19:51:48.997Z,15.53
2022-09-06T19:54:17.694Z,15.51
2022-09-06T19:56:49.426Z,15.52
2022-09-06T19:59:17.815Z,15.53
2022-09-06T20:01:46.464Z,15.53
2022-09-06T20:04:15.786Z,15.53
2022-09-06T20:06:43.697Z,15.54
2022-09-06T20:09:12.385Z,15.49
2022-09-06T20:11:41.342Z,15.47
2022-09-06T20:14:09.964Z,15.44
2022-09-06T20:16:41.471Z,15.47
2022-09-06T20:19:12.169Z,15.43
2022-09-06T20:21:40.401Z,15.45
2022-09-06T20:24:08.540Z,15.39
2022-09-06T20:26:36.408Z,15.38
2022-09-06T20:29:05.111Z,15.36
2022-09-06T20:31:35.167Z,15.39
2022-09-06T20:34:05.212Z,15.42
2022-09-06T20:36:33.238Z,15.37
2022-09-06T20:39:02.226Z,15.40
2022-09-06T20:41:31.024Z,15.41
2022-09-06T20:43:59.677Z,15.37
2022-09-06T20:46:29.954Z,15.37
2022-09-06T20:49:01.720Z,15.33
2022-09-06T20:51:29.680Z,15.27
2022-09-06T20:53:59.316Z,15.21
2022-09-06T20:56:29.719Z,15.20
2022-09-06T20:59:00.797Z,15.21
2022-09-06T21:01:31.107Z,15.15
2022-09-06T21:04:00.412Z,15.15
2022-09-06T21:06:30.714Z,15.08
2022-09-06T21:08:58.490Z,15.05
2022-09-06T21:11:26.192Z,15.05
2022-09-06T21:13:56.573Z,15.03
2022-09-06T21:16:29.086Z,15.03
2022-09-06T21:19:03.166Z,15.04
2022-09-06T21:21:33.082Z,15.06
2022-09-06T21:24:02.325Z,15.05
2022-09-06T21:26:30.541Z,15.02
2022-09-06T21:28:58.525Z,15.07
2022-09-06T21:31:31.313Z,15.02
2022-09-06T21:34:03.274Z,14.98
2022-09-06T21:36:34.065Z,14.89
2022-09-06T21:39:04.999Z,14.91
2022-09-06T21:41:35.103Z,14.77
2022-09-06T21:44:04.175Z,14.79
2022-09-06T21:46:34.686Z,14.85
2022-09-06T21:49:05.336Z,14.84
2022-09-06T21:51:33.323Z,14.80
2022-09-06T21:54:05.479Z,14.79
2022-09-06T21:56:38.153Z,14.77
2022-09-06T21:59:07.119Z,14.77
2022-09-06T22:01:36.796Z,14.76
2022-09-06T22:04:06.114Z,14.79
2022-09-06T22:06:35.463Z,14.81
2022-09-06T22:09:10.651Z,14.77
2022-09-06T22:11:39.686Z,14.73
2022-09-06T22:14:10.056Z,14.69
2022-09-06T22:16:39.654Z,14.65
2022-09-06T22:19:09.340Z,14.61
2022-09-06T22:21:38.798Z,14.67
2022-09-06T22:24:09.327Z,14.71
2022-09-06T22:26:38.657Z,14.72
2022-09-06T22:29:08.050Z,14.76
2022-09-06T22:31:36.553Z,14.77
2022-09-06T22:34:05.125Z,14.79
2022-09-06T22:36:33.749Z,14.76
2022-09-06T22:39:01.262Z,14.76
2022-09-06T22:41:31.359Z,14.71
2022-09-06T22:44:02.877Z,14.67
2022-09-06T22:46:31.081Z,14.57
2022-09-06T22:48:59.691Z,14.49
2022-09-06T22:51:27.483Z,14.31
2022-09-06T22:53:55.357Z,14.38
2022-09-06T22:56:22.864Z,14.36
2022-09-06T22:58:50.431Z,14.39
2022-09-06T23:01:18.144Z,14.38
2022-09-06T23:03:46.533Z,14.41
2022-09-06T23:06:14.018Z,14.44
2022-09-06T23:08:42.313Z,14.51
2022-09-06T23:11:12.866Z,14.52
2022-09-06T23:13:43.880Z,14.51
2022-09-06T23:16:17.861Z,14.43
2022-09-06T23:18:45.902Z,14.32
2022-09-06T23:21:17.120Z,14.34
2022-09-06T23:23:45.743Z,14.35
2022-09-06T23:26:19.277Z,14.35
2022-09-06T23:28:47.499Z,14.31
2022-09-06T23:31:15.752Z,14.29
2022-09-06T23:33:44.162Z,14.28
2022-09-06T23:36:14.658Z,14.27
2022-09-06T23:38:43.646Z,14.32
2022-09-06T23:41:11.371Z,14.34
2022-09-06T23:43:40.735Z,14.38
2022-09-06T23:46:12.913Z,14.39
2022-09-06T23:48:40.771Z,14.40
2022-09-06T23:51:08.460Z,14.42
2022-09-06T23:53:36.464Z,14.40
2022-09-06T23:56:05.112Z,14.38
2022-09-06T23:58:33.206Z,14.35
